createdAt,value
2019-04-25T00:02:24.126Z,65.21
2019-04-25T00:04:53.670Z,64.95
2019-04-25T00:07:23.366Z,64.98
2019-04-25T00:09:53.932Z,65.02
2019-04-25T00:12:24.138Z,64.98
2019-04-25T00:14:53.745Z,65.07
2019-04-25T00:17:24.563Z,64.80
2019-04-25T00:19:54.132Z,64.91
2019-04-25T00:22:28.523Z,65.06
2019-04-25T00:25:18.082Z,65.07
2019-04-25T00:27:48.525Z,65.10
2019-04-25T00:30:19.207Z,65.13
2019-04-25T00:32:49.298Z,65.03
2019-04-25T00:35:18.910Z,65.19
2019-04-25T00:37:48.394Z,65.30
2019-04-25T00:40:17.946Z,65.44
2019-04-25T00:42:48.205Z,65.32
2019-04-25T00:45:17.872Z,65.44
2019-04-25T00:47:47.747Z,65.31
2019-04-25T00:50:17.388Z,65.68
2019-04-25T00:52:46.870Z,65.88
2019-04-25T00:55:26.097Z,66.00
2019-04-25T00:57:49.303Z,66.31
2019-04-25T01:00:21.694Z,66.28
2019-04-25T01:02:54.561Z,66.43
2019-04-25T01:05:24.159Z,66.63
2019-04-25T01:07:54.411Z,66.52
2019-04-25T01:10:24.040Z,66.81
2019-04-25T01:12:53.769Z,66.78
2019-04-25T01:15:24.111Z,66.90
2019-04-25T01:17:53.659Z,67.20
2019-04-25T01:20:23.961Z,67.14
2019-04-25T01:22:54.279Z,67.24
2019-04-25T01:25:24.923Z,67.14
2019-04-25T01:27:54.798Z,67.29
2019-04-25T01:30:26.225Z,67.25
2019-04-25T01:32:55.705Z,67.26
2019-04-25T01:35:27.005Z,67.17
2019-04-25T01:38:06.762Z,67.23
2019-04-25T01:40:54.447Z,67.10
2019-04-25T01:43:43.684Z,66.89
2019-04-25T01:46:14.871Z,67.01
2019-04-25T01:48:44.497Z,67.29
2019-04-25T01:51:14.365Z,67.09
2019-04-25T01:53:44.217Z,67.25
2019-04-25T01:56:14.186Z,67.17
2019-04-25T01:58:43.918Z,67.19
2019-04-25T02:01:15.133Z,67.12
2019-04-25T02:03:44.691Z,66.80
2019-04-25T02:06:14.187Z,67.04
2019-04-25T02:08:44.112Z,66.88
2019-04-25T02:11:15.421Z,67.00
2019-04-25T02:13:45.051Z,66.84
2019-04-25T02:16:14.836Z,66.99
2019-04-25T02:18:44.368Z,67.38
2019-04-25T02:21:14.039Z,67.03
2019-04-25T02:23:44.183Z,66.58
2019-04-25T02:26:16.793Z,66.48
2019-04-25T02:28:45.120Z,66.50
2019-04-25T02:31:17.853Z,66.48
2019-04-25T02:33:45.794Z,66.50
2019-04-25T02:36:15.362Z,66.22
2019-04-25T02:38:44.825Z,66.08
2019-04-25T02:41:14.927Z,66.18
2019-04-25T02:43:45.204Z,66.24
2019-04-25T02:46:19.052Z,66.29
2019-04-25T02:48:48.374Z,65.85
2019-04-25T02:51:34.823Z,65.77
2019-04-25T02:54:06.750Z,65.81
2019-04-25T02:56:38.721Z,65.62
2019-04-25T02:59:08.768Z,65.75
2019-04-25T03:01:37.748Z,65.95
2019-04-25T03:04:10.718Z,65.31
2019-04-25T03:06:38.475Z,65.61
2019-04-25T03:09:10.734Z,65.69
2019-04-25T03:11:40.581Z,65.08
2019-04-25T03:14:10.445Z,65.10
2019-04-25T03:16:40.075Z,65.10
2019-04-25T03:19:18.103Z,65.12
2019-04-25T03:21:49.318Z,65.15
2019-04-25T03:24:18.916Z,65.21
2019-04-25T03:26:48.532Z,65.18
2019-04-25T03:29:18.002Z,65.24
2019-04-25T03:31:47.572Z,65.34
2019-04-25T03:34:20.546Z,65.50
2019-04-25T03:36:48.298Z,65.20
2019-04-25T03:39:17.795Z,65.39
2019-04-25T03:41:47.256Z,65.41
2019-04-25T03:44:16.835Z,65.53
2019-04-25T03:46:46.273Z,65.29
2019-04-25T03:49:15.835Z,65.51
2019-04-25T03:51:45.301Z,65.55
2019-04-25T03:54:14.855Z,65.27
2019-04-25T03:56:53.282Z,65.56
2019-04-25T03:59:16.116Z,64.97
2019-04-25T04:01:45.713Z,64.99
2019-04-25T04:04:16.248Z,65.02
2019-04-25T04:06:45.951Z,64.97
2019-04-25T04:09:15.456Z,64.83
2019-04-25T04:11:44.920Z,64.53
2019-04-25T04:14:15.622Z,64.69
2019-04-25T04:17:05.067Z,64.00
2019-04-25T04:19:35.937Z,64.67
2019-04-25T04:22:09.829Z,64.93
2019-04-25T04:24:40.951Z,64.73
2019-04-25T04:27:12.236Z,64.70
2019-04-25T04:29:43.208Z,64.40
2019-04-25T04:32:14.397Z,64.48
2019-04-25T04:34:45.529Z,64.97
2019-04-25T04:37:16.175Z,64.68
2019-04-25T04:39:45.777Z,64.41
2019-04-25T04:42:16.108Z,64.15
2019-04-25T04:44:45.697Z,64.04
2019-04-25T04:47:15.512Z,63.93
2019-04-25T04:49:45.276Z,64.21
2019-04-25T04:52:15.792Z,64.05
2019-04-25T04:54:45.438Z,63.77
2019-04-25T04:57:26.644Z,63.68
2019-04-25T04:59:46.121Z,63.52
2019-04-25T05:02:20.702Z,63.08
2019-04-25T05:04:49.943Z,63.20
2019-04-25T05:07:39.347Z,63.67
2019-04-25T05:10:08.943Z,63.23
2019-04-25T05:12:38.435Z,62.94
2019-04-25T05:15:09.134Z,62.75
2019-04-25T05:17:38.594Z,62.67
2019-04-25T05:20:08.399Z,63.05
2019-04-25T05:22:37.933Z,62.34
2019-04-25T05:25:08.263Z,62.03
2019-04-25T05:27:56.731Z,62.44
2019-04-25T05:30:11.558Z,61.91
2019-04-25T05:32:41.089Z,61.80
2019-04-25T05:35:10.844Z,62.30
2019-04-25T05:37:40.384Z,61.82
2019-04-25T05:40:10.258Z,61.78
2019-04-25T05:42:59.969Z,60.88
2019-04-25T05:45:34.080Z,61.08
2019-04-25T05:48:05.676Z,60.84
2019-04-25T05:50:35.014Z,60.58
2019-04-25T05:53:04.556Z,60.44
2019-04-25T05:55:34.431Z,59.85
2019-04-25T05:58:04.073Z,60.06
2019-04-25T06:00:34.065Z,60.39
2019-04-25T06:03:03.862Z,60.11
2019-04-25T06:05:33.793Z,59.88
2019-04-25T06:08:04.359Z,58.98
2019-04-25T06:10:47.283Z,59.02
2019-04-25T06:13:30.600Z,59.28
2019-04-25T06:16:03.452Z,59.09
2019-04-25T06:18:41.904Z,58.13
2019-04-25T06:21:13.332Z,59.33
2019-04-25T06:23:49.951Z,58.54
2019-04-25T06:26:32.721Z,58.40
2019-04-25T06:28:57.089Z,58.04
2019-04-25T06:31:23.820Z,56.65
2019-04-25T06:33:53.951Z,56.59
2019-04-25T06:36:24.549Z,56.14
2019-04-25T06:38:54.841Z,56.29
2019-04-25T06:41:25.879Z,55.67
2019-04-25T06:43:57.150Z,54.33
2019-04-25T06:46:44.309Z,54.61
2019-04-25T06:49:15.428Z,53.73
2019-04-25T06:51:51.862Z,53.60
2019-04-25T06:54:22.003Z,53.94
2019-04-25T06:56:53.533Z,53.58
2019-04-25T06:59:25.962Z,53.32
2019-04-25T07:01:56.214Z,53.32
2019-04-25T07:04:26.989Z,52.37
2019-04-25T07:07:09.390Z,52.42
2019-04-25T07:09:29.679Z,51.98
2019-04-25T07:11:59.436Z,51.86
2019-04-25T07:14:29.519Z,51.46
2019-04-25T07:16:59.083Z,50.80
2019-04-25T07:19:28.711Z,50.47
2019-04-25T07:21:58.314Z,50.39
2019-04-25T07:24:28.790Z,49.16
2019-04-25T07:27:11.833Z,48.77
2019-04-25T07:29:43.666Z,48.63
2019-04-25T07:32:20.219Z,49.62
2019-04-25T07:34:49.788Z,49.60
2019-04-25T07:37:19.398Z,49.12
2019-04-25T07:39:49.092Z,48.03
2019-04-25T07:42:18.742Z,48.48
2019-04-25T07:44:52.526Z,47.98
2019-04-25T07:47:19.560Z,49.00
2019-04-25T07:49:49.027Z,48.02
2019-04-25T07:52:18.593Z,48.28
2019-04-25T07:54:48.076Z,47.20
2019-04-25T07:57:17.532Z,47.51
2019-04-25T07:59:47.110Z,47.28
2019-04-25T08:02:16.890Z,46.97
2019-04-25T08:04:46.364Z,47.11
2019-04-25T08:07:15.913Z,46.07
2019-04-25T08:09:45.460Z,46.12
2019-04-25T08:12:15.016Z,46.04
2019-04-25T08:14:46.264Z,46.62
2019-04-25T08:17:17.452Z,44.91
2019-04-25T08:19:47.586Z,45.41
2019-04-25T08:22:17.204Z,44.31
2019-04-25T08:24:47.068Z,45.20
2019-04-25T08:27:16.561Z,44.49
2019-04-25T08:29:46.575Z,45.10
2019-04-25T08:32:16.162Z,44.85
2019-04-25T08:34:45.637Z,44.82
2019-04-25T08:37:20.339Z,45.32
2019-04-25T08:39:46.352Z,45.69
2019-04-25T08:42:15.904Z,45.74
2019-04-25T08:44:45.372Z,45.47
2019-04-25T08:47:14.857Z,45.48
2019-04-25T08:49:46.205Z,45.72
2019-04-25T08:52:15.778Z,45.87
2019-04-25T08:54:47.720Z,44.58
2019-04-25T08:57:18.905Z,45.09
2019-04-25T09:00:06.157Z,44.48
2019-04-25T09:02:44.670Z,44.66
2019-04-25T09:05:18.836Z,43.64
2019-04-25T09:07:48.400Z,44.52
2019-04-25T09:10:18.008Z,44.83
2019-04-25T09:12:47.524Z,44.42
2019-04-25T09:15:17.397Z,44.54
2019-04-25T09:17:47.253Z,44.18
2019-04-25T09:20:17.164Z,44.02
2019-04-25T09:22:46.669Z,44.04
2019-04-25T09:25:16.298Z,44.17
2019-04-25T09:27:47.429Z,44.05
2019-04-25T09:30:18.700Z,43.96
2019-04-25T09:32:48.266Z,44.07
2019-04-25T09:35:20.127Z,44.71
2019-04-25T09:37:49.296Z,44.54
2019-04-25T09:40:19.086Z,44.65
2019-04-25T09:42:50.197Z,44.77
2019-04-25T09:45:19.906Z,44.31
2019-04-25T09:47:51.004Z,43.79
2019-04-25T09:50:37.503Z,44.41
2019-04-25T09:53:15.488Z,44.44
2019-04-25T09:55:59.107Z,44.32
2019-04-25T09:58:30.257Z,44.06
2019-04-25T10:01:01.519Z,44.06
2019-04-25T10:03:31.001Z,42.96
2019-04-25T10:06:00.560Z,41.38
2019-04-25T10:08:30.069Z,41.49
2019-04-25T10:10:59.615Z,39.65
2019-04-25T10:13:29.111Z,40.49
2019-04-25T10:16:12.414Z,39.57
2019-04-25T10:18:43.682Z,40.27
2019-04-25T10:21:14.518Z,39.93
2019-04-25T10:23:46.410Z,39.90
2019-04-25T10:26:15.591Z,38.90
2019-04-25T10:28:45.326Z,38.46
2019-04-25T10:31:14.938Z,39.63
2019-04-25T10:33:46.685Z,38.94
2019-04-25T10:36:16.241Z,38.52
2019-04-25T10:39:01.502Z,38.77
2019-04-25T10:41:17.174Z,38.02
2019-04-25T10:43:46.875Z,38.69
2019-04-25T10:46:16.911Z,39.31
2019-04-25T10:48:46.492Z,38.62
2019-04-25T10:51:15.950Z,37.38
2019-04-25T10:53:46.925Z,38.34
2019-04-25T10:56:16.536Z,36.35
2019-04-25T10:58:46.719Z,37.17
2019-04-25T11:01:16.450Z,36.76
2019-04-25T11:04:04.679Z,35.83
2019-04-25T11:06:34.460Z,36.30
2019-04-25T11:09:05.702Z,36.47
2019-04-25T11:11:36.729Z,36.55
2019-04-25T11:14:07.605Z,35.87
2019-04-25T11:16:37.380Z,34.70
2019-04-25T11:19:07.092Z,34.96
2019-04-25T11:21:36.723Z,35.32
2019-04-25T11:24:06.504Z,33.96
2019-04-25T11:26:36.176Z,33.90
2019-04-25T11:29:05.927Z,33.28
2019-04-25T11:31:37.110Z,34.00
2019-04-25T11:34:07.478Z,33.70
2019-04-25T11:36:37.092Z,34.22
2019-04-25T11:39:13.614Z,34.18
2019-04-25T11:41:45.627Z,33.92
2019-04-25T11:44:14.473Z,33.54
2019-04-25T11:46:45.327Z,34.86
2019-04-25T11:49:15.462Z,33.98
2019-04-25T11:51:46.108Z,31.89
2019-04-25T11:54:15.910Z,33.10
2019-04-25T11:56:46.989Z,32.27
2019-04-25T11:59:16.794Z,32.26
2019-04-25T12:01:47.646Z,31.91
2019-04-25T12:04:17.220Z,32.70
2019-04-25T12:06:47.550Z,32.87
2019-04-25T12:09:17.611Z,31.75
2019-04-25T12:11:48.483Z,33.52
2019-04-25T12:14:18.267Z,32.84
2019-04-25T12:16:50.323Z,33.17
2019-04-25T12:19:19.014Z,32.40
2019-04-25T12:21:48.527Z,31.63
2019-04-25T12:24:18.129Z,31.97
2019-04-25T12:26:48.673Z,31.80
2019-04-25T12:29:18.173Z,32.15
2019-04-25T12:31:47.729Z,33.76
2019-04-25T12:34:17.450Z,32.82
2019-04-25T12:36:47.574Z,31.33
2019-04-25T12:39:18.008Z,31.54
2019-04-25T12:41:49.009Z,31.00
2019-04-25T12:44:21.349Z,31.25
2019-04-25T12:46:54.219Z,30.68
2019-04-25T12:49:24.184Z,31.17
2019-04-25T12:51:53.748Z,31.85
2019-04-25T12:54:23.872Z,31.16
2019-04-25T12:56:53.741Z,31.39
2019-04-25T12:59:23.237Z,32.37
2019-04-25T13:01:54.508Z,30.54
2019-04-25T13:04:24.015Z,32.24
2019-04-25T13:06:54.453Z,31.68
2019-04-25T13:09:23.995Z,31.19
2019-04-25T13:11:53.530Z,31.33
2019-04-25T13:14:23.121Z,31.04
2019-04-25T13:16:52.732Z,31.03
2019-04-25T13:19:25.946Z,30.54
2019-04-25T13:21:54.359Z,30.13
2019-04-25T13:24:24.019Z,30.38
2019-04-25T13:27:10.101Z,30.28
2019-04-25T13:29:39.393Z,29.97
2019-04-25T13:32:17.295Z,29.33
2019-04-25T13:34:50.920Z,29.27
2019-04-25T13:37:20.494Z,30.01
2019-04-25T13:39:50.114Z,28.78
2019-04-25T13:42:19.851Z,27.53
2019-04-25T13:44:49.485Z,27.55
2019-04-25T13:47:19.085Z,28.53
2019-04-25T13:49:48.592Z,28.24
2019-04-25T13:52:18.108Z,29.24
2019-04-25T13:54:47.762Z,29.55
2019-04-25T13:57:17.246Z,29.31
2019-04-25T13:59:46.976Z,28.37
2019-04-25T14:02:16.647Z,29.68
2019-04-25T14:04:46.192Z,28.78
2019-04-25T14:07:15.684Z,29.02
2019-04-25T14:09:45.224Z,29.11
2019-04-25T14:12:14.987Z,28.65
2019-04-25T14:14:44.458Z,28.85
2019-04-25T14:17:25.830Z,29.12
2019-04-25T14:20:00.963Z,28.44
2019-04-25T14:22:30.531Z,29.67
2019-04-25T14:25:00.265Z,28.76
2019-04-25T14:27:30.240Z,28.99
2019-04-25T14:29:59.721Z,29.27
2019-04-25T14:32:30.139Z,29.25
2019-04-25T14:34:59.726Z,29.50
2019-04-25T14:37:32.203Z,29.26
2019-04-25T14:40:00.482Z,29.61
2019-04-25T14:42:30.715Z,29.73
2019-04-25T14:45:00.185Z,29.71
2019-04-25T14:47:29.834Z,29.80
2019-04-25T14:49:59.296Z,28.75
2019-04-25T14:52:28.882Z,28.43
2019-04-25T14:54:58.221Z,28.61
2019-04-25T14:57:29.804Z,29.28
2019-04-25T15:00:02.033Z,29.45
2019-04-25T15:02:32.476Z,28.91
2019-04-25T15:05:05.588Z,28.92
2019-04-25T15:07:35.172Z,29.48
2019-04-25T15:10:06.461Z,28.76
2019-04-25T15:12:35.947Z,28.84
2019-04-25T15:15:06.963Z,30.41
2019-04-25T15:17:45.171Z,29.88
2019-04-25T15:20:09.090Z,29.63
2019-04-25T15:22:38.649Z,29.75
2019-04-25T15:25:08.417Z,30.87
2019-04-25T15:27:37.948Z,30.71
2019-04-25T15:30:09.992Z,30.84
2019-04-25T15:32:39.597Z,30.60
2019-04-25T15:35:10.965Z,30.75
2019-04-25T15:37:50.003Z,32.44
2019-04-25T15:40:22.208Z,30.35
2019-04-25T15:43:00.206Z,31.15
2019-04-25T15:45:34.267Z,31.72
2019-04-25T15:48:05.543Z,31.03
2019-04-25T15:50:34.994Z,30.88
2019-04-25T15:53:04.575Z,31.14
2019-04-25T15:55:34.802Z,30.89
2019-04-25T15:58:04.708Z,31.42
2019-04-25T16:00:37.767Z,31.30
2019-04-25T16:03:08.688Z,31.04
2019-04-25T16:05:38.385Z,30.85
2019-04-25T16:08:08.526Z,31.13
2019-04-25T16:10:38.013Z,31.50
2019-04-25T16:13:07.957Z,31.05
2019-04-25T16:15:37.526Z,32.33
2019-04-25T16:18:07.454Z,33.25
2019-04-25T16:20:37.040Z,32.21
2019-04-25T16:23:07.654Z,32.62
2019-04-25T16:25:37.254Z,32.05
2019-04-25T16:28:06.779Z,32.12
2019-04-25T16:30:36.535Z,32.23
2019-04-25T16:33:06.619Z,32.26
2019-04-25T16:35:36.151Z,32.39
2019-04-25T16:38:06.702Z,30.98
2019-04-25T16:40:36.332Z,29.37
2019-04-25T16:43:07.670Z,28.44
2019-04-25T16:45:38.885Z,28.23
2019-04-25T16:48:08.420Z,28.50
2019-04-25T16:50:38.352Z,28.43
2019-04-25T16:53:07.873Z,28.52
2019-04-25T16:55:37.431Z,29.01
2019-04-25T16:58:08.464Z,29.34
2019-04-25T17:00:45.333Z,30.19
2019-04-25T17:03:15.546Z,30.48
2019-04-25T17:05:45.272Z,30.20
2019-04-25T17:08:14.815Z,30.29
2019-04-25T17:10:44.436Z,30.99
2019-04-25T17:13:14.084Z,31.41
2019-04-25T17:15:54.123Z,31.46
2019-04-25T17:18:25.340Z,31.82
2019-04-25T17:20:56.527Z,32.39
2019-04-25T17:23:26.089Z,32.54
2019-04-25T17:25:55.660Z,32.16
2019-04-25T17:28:25.342Z,32.41
2019-04-25T17:30:56.565Z,32.96
2019-04-25T17:33:31.279Z,33.36
2019-04-25T17:36:06.264Z,33.63
2019-04-25T17:38:37.654Z,33.97
2019-04-25T17:41:07.277Z,34.27
2019-04-25T17:43:36.845Z,34.49
2019-04-25T17:46:08.031Z,34.86
2019-04-25T17:48:38.266Z,35.28
2019-04-25T17:51:07.786Z,35.04
2019-04-25T17:53:37.372Z,35.45
2019-04-25T17:56:07.007Z,35.55
2019-04-25T17:58:36.781Z,35.78
2019-04-25T18:01:08.216Z,36.17
2019-04-25T18:03:37.836Z,36.17
2019-04-25T18:06:07.365Z,36.49
2019-04-25T18:08:37.494Z,36.96
2019-04-25T18:11:07.767Z,37.05
2019-04-25T18:13:38.801Z,37.20
2019-04-25T18:16:19.167Z,37.25
2019-04-25T18:18:59.207Z,37.48
2019-04-25T18:21:28.670Z,37.97
2019-04-25T18:24:15.873Z,37.79
2019-04-25T18:26:53.192Z,37.86
2019-04-25T18:29:24.115Z,38.27
2019-04-25T18:31:54.036Z,38.38
2019-04-25T18:34:28.849Z,38.46
2019-04-25T18:36:58.086Z,38.19
2019-04-25T18:39:29.206Z,38.69
2019-04-25T18:42:08.057Z,38.39
2019-04-25T18:44:37.872Z,38.50
2019-04-25T18:47:07.448Z,38.50
2019-04-25T18:49:37.659Z,38.76
2019-04-25T18:52:09.805Z,38.96
2019-04-25T18:54:47.324Z,39.23
2019-04-25T18:57:21.640Z,39.42
2019-04-25T19:00:07.777Z,39.36
2019-04-25T19:02:40.035Z,39.44
2019-04-25T19:05:24.480Z,39.99
2019-04-25T19:07:54.112Z,40.61
2019-04-25T19:10:24.200Z,41.39
2019-04-25T19:12:53.839Z,41.28
2019-04-25T19:15:23.521Z,41.84
2019-04-25T19:17:53.157Z,42.36
2019-04-25T19:20:22.768Z,42.70
2019-04-25T19:22:52.665Z,42.96
2019-04-25T19:25:22.330Z,43.56
2019-04-25T19:28:11.291Z,43.20
2019-04-25T19:30:41.087Z,43.77
2019-04-25T19:33:10.741Z,44.01
2019-04-25T19:35:40.770Z,44.91
2019-04-25T19:38:11.176Z,44.91
2019-04-25T19:40:48.773Z,45.74
2019-04-25T19:43:22.809Z,47.16
2019-04-25T19:45:52.357Z,47.62
2019-04-25T19:48:21.928Z,48.11
2019-04-25T19:50:52.738Z,48.98
2019-04-25T19:53:22.436Z,49.70
2019-04-25T19:56:11.305Z,50.27
2019-04-25T19:58:42.053Z,49.81
2019-04-25T20:01:11.653Z,50.20
2019-04-25T20:03:53.392Z,51.16
2019-04-25T20:06:20.887Z,50.79
2019-04-25T20:09:16.789Z,51.11
2019-04-25T20:14:25.698Z,51.38
2019-04-25T20:16:55.205Z,51.10
2019-04-25T20:19:24.679Z,52.23
2019-04-25T20:21:54.220Z,52.85
2019-04-25T20:24:23.713Z,52.35
2019-04-25T20:26:53.237Z,54.11
2019-04-25T20:29:22.699Z,53.77
2019-04-25T20:31:52.786Z,53.50
2019-04-25T20:34:22.440Z,53.76
2019-04-25T20:36:51.944Z,53.71
2019-04-25T20:39:40.792Z,53.90
2019-04-25T20:42:10.331Z,55.29
2019-04-25T20:44:39.840Z,53.71
2019-04-25T20:47:09.386Z,54.91
2019-04-25T20:49:38.898Z,54.72
2019-04-25T20:52:08.454Z,55.64
2019-04-25T20:54:37.955Z,54.57
2019-04-25T20:57:07.602Z,55.11
2019-04-25T20:59:37.114Z,54.94
2019-04-25T21:02:08.052Z,56.04
2019-04-25T21:04:41.538Z,55.70
2019-04-25T21:07:11.764Z,55.72
2019-04-25T21:09:41.630Z,56.00
2019-04-25T21:12:11.104Z,55.00
2019-04-25T21:14:51.197Z,54.95
2019-04-25T21:17:24.900Z,54.80
2019-04-25T21:19:56.317Z,54.91
2019-04-25T21:22:25.888Z,54.50
2019-04-25T21:24:55.845Z,54.66
2019-04-25T21:27:25.555Z,54.72
2019-04-25T21:29:55.603Z,55.29
2019-04-25T21:32:53.086Z,54.86
2019-04-25T21:35:23.993Z,55.27
2019-04-25T21:37:53.647Z,54.57
2019-04-25T21:40:39.751Z,54.53
2019-04-25T21:43:11.959Z,55.40
2019-04-25T21:45:41.895Z,55.13
2019-04-25T21:48:30.986Z,55.33
2019-04-25T21:51:03.437Z,55.52
2019-04-25T21:53:32.956Z,55.84
2019-04-25T21:56:02.745Z,56.14
2019-04-25T21:58:32.590Z,56.54
2019-04-25T22:01:04.491Z,56.74
2019-04-25T22:03:34.100Z,56.15
2019-04-25T22:06:05.108Z,56.47
2019-04-25T22:08:34.586Z,56.58
2019-04-25T22:11:04.105Z,57.02
2019-04-25T22:13:34.059Z,57.32
2019-04-25T22:16:04.105Z,57.60
2019-04-25T22:18:33.932Z,57.43
2019-04-25T22:21:04.226Z,57.38
2019-04-25T22:23:34.235Z,58.47
2019-04-25T22:26:04.901Z,59.03
2019-04-25T22:28:34.806Z,58.46
2019-04-25T22:31:08.803Z,58.13
2019-04-25T22:33:57.173Z,57.98
2019-04-25T22:36:28.262Z,58.07
2019-04-25T22:39:17.126Z,58.96
2019-04-25T22:41:50.002Z,58.25
2019-04-25T22:44:20.284Z,59.16
2019-04-25T22:46:50.174Z,58.54
2019-04-25T22:49:19.633Z,59.04
2019-04-25T22:51:49.116Z,58.65
2019-04-25T22:54:18.873Z,58.67
2019-04-25T22:56:48.412Z,58.98
2019-04-25T22:59:18.179Z,58.66
2019-04-25T23:01:47.450Z,58.87
2019-04-25T23:04:19.617Z,58.82
2019-04-25T23:06:49.185Z,59.06
2019-04-25T23:09:38.878Z,58.40
2019-04-25T23:12:08.784Z,59.03
2019-04-25T23:14:38.572Z,59.72
2019-04-25T23:17:08.057Z,59.50
2019-04-25T23:19:37.544Z,59.56
2019-04-25T23:22:07.394Z,60.16
2019-04-25T23:24:38.605Z,60.10
2019-04-25T23:27:15.835Z,60.57
2019-04-25T23:29:45.292Z,59.89
2019-04-25T23:32:15.153Z,60.31
2019-04-25T23:34:44.651Z,60.86
2019-04-25T23:37:14.263Z,60.89
2019-04-25T23:39:44.966Z,61.26
2019-04-25T23:42:14.446Z,60.89
2019-04-25T23:44:45.047Z,61.20
2019-04-25T23:47:14.574Z,61.29
2019-04-25T23:49:44.039Z,61.00
2019-04-25T23:52:15.027Z,61.43
2019-04-25T23:54:44.809Z,61.57
2019-04-25T23:57:15.779Z,61.57
2019-04-25T23:59:45.341Z,61.50
